createdAt,value
2024-05-09T00:02:29.172Z,92.99
2024-05-09T00:05:03.392Z,92.24
2024-05-09T00:07:36.002Z,91.71
2024-05-09T00:10:11.792Z,89.13
2024-05-09T00:12:48.375Z,87.95
2024-05-09T00:15:18.731Z,88.18
2024-05-09T00:17:50.519Z,86.25
2024-05-09T00:20:28.503Z,85.30
2024-05-09T00:23:08.761Z,84.04
2024-05-09T00:25:40.439Z,83.52
2024-05-09T00:28:12.615Z,84.03
2024-05-09T00:30:44.116Z,81.42
2024-05-09T00:33:15.344Z,82.69
2024-05-09T00:35:48.349Z,78.75
2024-05-09T00:38:19.460Z,78.62
2024-05-09T00:40:50.605Z,79.28
2024-05-09T00:43:21.641Z,77.95
2024-05-09T00:45:53.734Z,79.75
2024-05-09T00:48:26.962Z,77.67
2024-05-09T00:51:00.957Z,77.42
2024-05-09T00:53:33.791Z,79.82
2024-05-09T00:56:04.375Z,77.41
2024-05-09T00:58:35.179Z,78.50
2024-05-09T01:01:06.145Z,77.49
2024-05-09T01:03:37.581Z,76.82
2024-05-09T01:06:12.058Z,77.84
2024-05-09T01:08:45.018Z,76.36
2024-05-09T01:11:17.997Z,75.40
2024-05-09T01:13:49.044Z,78.12
2024-05-09T01:16:22.078Z,79.52
2024-05-09T01:18:53.201Z,76.77
2024-05-09T01:21:27.223Z,75.14
2024-05-09T01:24:02.069Z,75.16
2024-05-09T01:26:33.175Z,74.55
2024-05-09T01:29:04.004Z,75.79
2024-05-09T01:31:36.961Z,76.00
2024-05-09T01:34:08.864Z,74.68
2024-05-09T01:36:41.037Z,76.26
2024-05-09T01:39:14.387Z,75.38
2024-05-09T01:41:45.302Z,76.11
2024-05-09T01:44:17.590Z,75.54
2024-05-09T01:46:48.322Z,75.80
2024-05-09T01:49:18.824Z,73.32
2024-05-09T01:51:51.324Z,73.43
2024-05-09T01:54:24.750Z,73.29
2024-05-09T01:56:56.289Z,73.20
2024-05-09T01:59:28.568Z,69.06
2024-05-09T02:01:59.451Z,71.42
2024-05-09T02:04:31.017Z,72.47
2024-05-09T02:07:01.826Z,71.71
2024-05-09T02:09:35.701Z,71.04
2024-05-09T02:12:06.873Z,71.96
2024-05-09T02:14:37.201Z,69.49
2024-05-09T02:17:08.113Z,68.91
2024-05-09T02:19:38.444Z,69.21
2024-05-09T02:22:09.171Z,69.78
2024-05-09T02:24:41.971Z,71.22
2024-05-09T02:27:12.830Z,70.10
2024-05-09T02:29:43.213Z,70.42
2024-05-09T02:32:14.797Z,68.03
2024-05-09T02:34:44.080Z,66.43
2024-05-09T02:37:14.451Z,66.66
2024-05-09T02:39:45.366Z,67.19
2024-05-09T02:42:15.981Z,66.31
2024-05-09T02:44:44.648Z,67.06
2024-05-09T02:47:16.763Z,68.40
2024-05-09T02:49:45.900Z,67.68
2024-05-09T02:52:20.152Z,67.77
2024-05-09T02:54:52.630Z,68.67
2024-05-09T02:57:23.207Z,67.13
2024-05-09T02:59:52.489Z,67.35
2024-05-09T03:02:25.337Z,68.58
2024-05-09T03:04:53.360Z,68.53
2024-05-09T03:07:25.628Z,67.17
2024-05-09T03:09:56.800Z,68.78
2024-05-09T03:12:28.429Z,66.61
2024-05-09T03:14:58.031Z,67.16
2024-05-09T03:17:29.462Z,68.87
2024-05-09T03:19:59.207Z,67.74
2024-05-09T03:22:31.662Z,66.28
2024-05-09T03:25:02.768Z,65.90
2024-05-09T03:27:34.100Z,66.58
2024-05-09T03:30:04.024Z,65.56
2024-05-09T03:32:37.424Z,66.41
2024-05-09T03:35:06.162Z,66.05
2024-05-09T03:37:37.274Z,66.64
2024-05-09T03:40:20.253Z,65.87
2024-05-09T03:42:56.397Z,66.16
2024-05-09T03:45:27.101Z,66.59
2024-05-09T03:47:56.474Z,67.11
2024-05-09T03:50:33.839Z,66.66
2024-05-09T03:53:06.952Z,66.66
2024-05-09T03:55:37.095Z,66.70
2024-05-09T03:58:08.396Z,67.32
2024-05-09T04:00:39.451Z,67.77
2024-05-09T04:03:12.449Z,68.23
2024-05-09T04:05:42.942Z,67.74
2024-05-09T04:08:15.308Z,66.81
2024-05-09T04:10:47.596Z,68.64
2024-05-09T04:13:18.051Z,68.69
2024-05-09T04:15:46.461Z,68.48
2024-05-09T04:18:17.531Z,68.55
2024-05-09T04:20:45.284Z,69.39
2024-05-09T04:23:16.824Z,67.50
2024-05-09T04:25:47.879Z,67.78
2024-05-09T04:28:20.272Z,69.39
2024-05-09T04:30:47.795Z,69.79
2024-05-09T04:33:20.246Z,69.79
2024-05-09T04:35:50.001Z,70.05
2024-05-09T04:38:21.243Z,71.06
2024-05-09T04:40:52.100Z,71.46
2024-05-09T04:43:23.481Z,70.62
2024-05-09T04:45:52.564Z,70.97
2024-05-09T04:48:24.639Z,70.96
2024-05-09T04:50:54.205Z,71.27
2024-05-09T04:53:27.416Z,70.55
2024-05-09T04:55:58.120Z,72.00
2024-05-09T04:58:29.864Z,71.71
2024-05-09T05:00:58.430Z,70.44
2024-05-09T05:03:30.175Z,69.80
2024-05-09T05:05:59.210Z,69.60
2024-05-09T05:08:31.836Z,70.48
2024-05-09T05:11:04.373Z,70.39
2024-05-09T05:13:37.876Z,65.63
2024-05-09T05:16:09.161Z,64.16
2024-05-09T05:18:40.242Z,64.04
2024-05-09T05:21:09.346Z,61.86
2024-05-09T05:23:41.402Z,62.13
2024-05-09T05:26:13.489Z,62.19
2024-05-09T05:28:45.731Z,61.84
2024-05-09T05:31:15.320Z,61.86
2024-05-09T05:33:46.379Z,61.25
2024-05-09T05:36:14.665Z,61.82
2024-05-09T05:38:47.152Z,61.81
2024-05-09T05:41:18.826Z,62.82
2024-05-09T05:43:49.828Z,64.13
2024-05-09T05:46:17.827Z,62.31
2024-05-09T05:48:50.321Z,63.97
2024-05-09T05:51:18.731Z,62.63
2024-05-09T05:53:50.928Z,63.46
2024-05-09T05:56:21.913Z,63.66
2024-05-09T05:58:53.229Z,64.16
2024-05-09T06:01:22.717Z,63.47
2024-05-09T06:03:53.368Z,63.37
2024-05-09T06:06:23.421Z,63.35
2024-05-09T06:08:53.662Z,63.65
2024-05-09T06:11:24.685Z,63.49
2024-05-09T06:13:55.165Z,63.72
2024-05-09T06:16:23.730Z,64.62
2024-05-09T06:18:54.141Z,63.81
2024-05-09T06:21:23.884Z,64.26
2024-05-09T06:23:55.030Z,64.39
2024-05-09T06:26:26.904Z,64.37
2024-05-09T06:28:59.221Z,64.00
2024-05-09T06:31:27.709Z,63.46
2024-05-09T06:33:58.772Z,63.22
2024-05-09T06:36:27.850Z,62.22
2024-05-09T06:39:00.318Z,62.35
2024-05-09T06:41:32.535Z,61.37
2024-05-09T06:44:04.550Z,62.64
2024-05-09T06:46:32.652Z,61.04
2024-05-09T06:49:08.538Z,60.45
2024-05-09T06:51:38.451Z,60.04
2024-05-09T06:54:10.176Z,60.29
2024-05-09T06:56:40.513Z,56.98
2024-05-09T06:59:11.577Z,55.40
2024-05-09T07:01:40.460Z,54.79
2024-05-09T07:04:11.387Z,56.53
2024-05-09T07:06:39.440Z,55.33
2024-05-09T07:09:11.031Z,55.30
2024-05-09T07:11:43.325Z,55.88
2024-05-09T07:14:14.650Z,55.07
2024-05-09T07:16:42.538Z,55.21
2024-05-09T07:19:14.864Z,54.31
2024-05-09T07:21:43.037Z,55.41
2024-05-09T07:24:15.043Z,55.14
2024-05-09T07:26:45.628Z,53.53
2024-05-09T07:29:16.434Z,54.82
2024-05-09T07:31:44.699Z,54.86
2024-05-09T07:34:17.431Z,55.20
2024-05-09T07:36:46.438Z,54.59
2024-05-09T07:39:17.400Z,53.06
2024-05-09T07:41:48.185Z,54.45
2024-05-09T07:44:18.644Z,53.66
2024-05-09T07:47:48.487Z,54.96
2024-05-09T07:54:41.134Z,54.59
2024-05-09T07:57:13.458Z,54.26
2024-05-09T07:59:43.720Z,53.17
2024-05-09T08:02:13.456Z,51.93
2024-05-09T08:04:46.630Z,52.41
2024-05-09T08:07:15.298Z,54.79
2024-05-09T08:09:45.678Z,51.67
2024-05-09T08:12:17.296Z,53.11
2024-05-09T08:14:50.674Z,51.65
2024-05-09T08:17:21.513Z,51.91
2024-05-09T08:19:52.416Z,51.44
2024-05-09T08:22:21.141Z,53.20
2024-05-09T08:24:54.494Z,51.44
2024-05-09T08:27:27.853Z,52.58
2024-05-09T08:29:59.271Z,53.12
2024-05-09T08:32:29.158Z,51.79
2024-05-09T08:35:00.221Z,52.60
2024-05-09T08:37:32.832Z,51.61
2024-05-09T08:40:11.129Z,51.44
2024-05-09T08:42:49.198Z,51.46
2024-05-09T08:45:21.535Z,51.75
2024-05-09T08:47:50.738Z,51.06
2024-05-09T08:50:31.434Z,50.75
2024-05-09T08:53:06.127Z,52.25
2024-05-09T08:55:40.560Z,51.90
2024-05-09T08:58:16.214Z,50.67
2024-05-09T09:00:48.686Z,52.32
2024-05-09T09:03:18.679Z,51.06
2024-05-09T09:05:55.514Z,51.64
2024-05-09T09:08:23.904Z,52.32
2024-05-09T09:10:55.662Z,52.17
2024-05-09T09:13:27.209Z,51.10
2024-05-09T09:15:59.366Z,51.71
2024-05-09T09:18:28.430Z,50.77
2024-05-09T09:21:00.495Z,52.57
2024-05-09T09:23:30.107Z,51.06
2024-05-09T09:26:02.704Z,51.65
2024-05-09T09:28:36.938Z,50.73
2024-05-09T09:31:09.405Z,49.88
2024-05-09T09:33:42.616Z,51.44
2024-05-09T09:36:14.456Z,50.50
2024-05-09T09:38:42.707Z,50.70
2024-05-09T09:41:15.866Z,50.40
2024-05-09T09:43:47.180Z,49.87
2024-05-09T09:46:18.952Z,50.44
2024-05-09T09:48:48.447Z,50.32
2024-05-09T09:51:19.956Z,50.27
2024-05-09T09:53:48.205Z,50.30
2024-05-09T09:56:20.480Z,50.88
2024-05-09T09:58:51.798Z,49.38
2024-05-09T10:01:25.370Z,49.97
2024-05-09T10:03:54.016Z,50.11
2024-05-09T10:06:25.991Z,50.72
2024-05-09T10:08:54.823Z,50.80
2024-05-09T10:11:27.133Z,50.01
2024-05-09T10:13:57.625Z,50.81
2024-05-09T10:16:28.022Z,51.44
2024-05-09T10:18:56.571Z,51.21
2024-05-09T10:21:27.056Z,49.86
2024-05-09T10:24:00.033Z,50.97
2024-05-09T10:26:35.490Z,51.88
2024-05-09T10:29:16.652Z,50.53
2024-05-09T10:31:46.195Z,51.02
2024-05-09T10:34:21.022Z,50.49
2024-05-09T10:36:54.549Z,50.43
2024-05-09T10:39:26.915Z,51.36
2024-05-09T10:41:54.482Z,50.93
2024-05-09T10:44:29.568Z,49.75
2024-05-09T10:46:57.178Z,50.59
2024-05-09T10:49:28.074Z,50.06
2024-05-09T10:51:56.402Z,49.05
2024-05-09T10:54:26.814Z,49.62
2024-05-09T10:56:58.714Z,48.27
2024-05-09T10:59:37.094Z,48.14
2024-05-09T11:02:08.113Z,48.16
2024-05-09T11:04:39.364Z,47.40
2024-05-09T11:07:09.321Z,46.04
2024-05-09T11:09:41.463Z,44.34
2024-05-09T11:12:10.007Z,45.39
2024-05-09T11:14:44.605Z,46.08
2024-05-09T11:17:13.548Z,46.78
2024-05-09T11:19:46.753Z,44.98
2024-05-09T11:22:16.542Z,47.28
2024-05-09T11:24:47.567Z,44.86
2024-05-09T11:27:15.864Z,44.47
2024-05-09T11:29:49.671Z,44.18
2024-05-09T11:32:28.681Z,44.88
2024-05-09T11:34:59.739Z,42.51
2024-05-09T11:37:27.439Z,43.60
2024-05-09T11:39:59.257Z,42.74
2024-05-09T11:42:27.749Z,42.91
2024-05-09T11:45:01.344Z,42.29
2024-05-09T11:47:29.861Z,41.85
2024-05-09T11:50:00.436Z,41.71
2024-05-09T11:52:29.308Z,43.00
2024-05-09T11:55:00.055Z,41.95
2024-05-09T11:57:29.452Z,42.08
2024-05-09T12:00:05.606Z,41.16
2024-05-09T12:02:33.833Z,40.15
2024-05-09T12:05:04.648Z,39.85
2024-05-09T12:07:32.922Z,41.24
2024-05-09T12:10:04.660Z,40.25
2024-05-09T12:12:37.227Z,41.64
2024-05-09T12:15:11.545Z,42.38
2024-05-09T12:17:40.501Z,41.51
2024-05-09T12:20:21.085Z,39.79
2024-05-09T12:22:53.278Z,40.13
2024-05-09T12:25:24.377Z,40.64
2024-05-09T12:27:52.808Z,41.71
2024-05-09T12:30:34.865Z,40.55
2024-05-09T12:33:06.542Z,39.97
2024-05-09T12:35:37.830Z,40.03
2024-05-09T12:38:05.977Z,38.65
2024-05-09T12:40:38.946Z,39.96
2024-05-09T12:43:09.091Z,39.65
2024-05-09T12:45:44.828Z,38.88
2024-05-09T12:48:13.577Z,39.44
2024-05-09T12:50:44.288Z,39.64
2024-05-09T12:53:12.702Z,38.37
2024-05-09T12:55:53.168Z,38.80
2024-05-09T12:58:25.191Z,39.57
2024-05-09T13:00:59.577Z,39.12
2024-05-09T13:03:28.251Z,39.71
2024-05-09T13:05:59.567Z,40.01
2024-05-09T13:08:27.701Z,39.74
2024-05-09T13:10:59.985Z,38.03
2024-05-09T13:13:29.267Z,38.75
2024-05-09T13:16:03.568Z,38.63
2024-05-09T13:18:33.497Z,38.93
2024-05-09T13:21:05.844Z,38.91
2024-05-09T13:23:34.457Z,38.74
2024-05-09T13:26:05.882Z,38.62
2024-05-09T13:28:34.208Z,38.26
2024-05-09T13:31:08.222Z,36.98
2024-05-09T13:33:36.958Z,38.67
2024-05-09T13:36:08.567Z,38.16
2024-05-09T13:38:36.662Z,37.05
2024-05-09T13:41:07.981Z,38.54
2024-05-09T13:43:36.174Z,38.02
2024-05-09T13:46:09.559Z,39.04
2024-05-09T13:48:39.146Z,39.01
2024-05-09T13:51:10.846Z,38.96
2024-05-09T13:53:38.931Z,39.68
2024-05-09T13:56:10.273Z,40.02
2024-05-09T13:58:38.460Z,39.70
2024-05-09T14:01:11.971Z,39.40
2024-05-09T14:03:39.824Z,37.81
2024-05-09T14:06:12.995Z,38.95
2024-05-09T14:08:40.874Z,38.85
2024-05-09T14:11:11.397Z,39.31
2024-05-09T14:13:39.416Z,38.39
2024-05-09T14:16:12.662Z,39.78
2024-05-09T14:18:41.171Z,38.51
2024-05-09T14:21:14.569Z,37.71
2024-05-09T14:23:43.470Z,37.92
2024-05-09T14:26:14.455Z,38.21
2024-05-09T14:28:42.707Z,38.41
2024-05-09T14:31:16.408Z,36.76
2024-05-09T14:33:44.940Z,38.33
2024-05-09T14:36:19.170Z,38.70
2024-05-09T14:38:47.990Z,35.75
2024-05-09T14:41:19.074Z,39.49
2024-05-09T14:43:47.462Z,37.09
2024-05-09T14:46:20.588Z,37.39
2024-05-09T14:48:49.571Z,36.81
2024-05-09T14:51:20.844Z,36.96
2024-05-09T14:53:50.624Z,37.59
2024-05-09T14:56:22.355Z,38.00
2024-05-09T14:58:50.997Z,38.80
2024-05-09T15:01:25.090Z,36.80
2024-05-09T15:03:54.454Z,36.91
2024-05-09T15:06:27.125Z,37.72
2024-05-09T15:08:56.767Z,37.64
2024-05-09T15:11:27.909Z,37.94
2024-05-09T15:13:55.512Z,37.56
2024-05-09T15:16:29.786Z,39.05
2024-05-09T15:18:59.612Z,39.06
2024-05-09T15:21:32.124Z,39.65
2024-05-09T15:24:00.540Z,38.33
2024-05-09T15:26:32.310Z,38.76
2024-05-09T15:29:02.115Z,37.98
2024-05-09T15:31:34.993Z,38.38
2024-05-09T15:34:02.686Z,38.17
2024-05-09T15:36:34.198Z,38.49
2024-05-09T15:39:02.790Z,39.52
2024-05-09T15:41:37.232Z,40.29
2024-05-09T15:44:07.622Z,39.64
2024-05-09T15:46:42.294Z,38.14
2024-05-09T15:49:12.924Z,38.33
2024-05-09T15:51:41.357Z,38.16
2024-05-09T15:54:12.892Z,39.81
2024-05-09T15:56:47.331Z,39.38
2024-05-09T15:59:18.986Z,39.08
2024-05-09T16:01:49.229Z,39.17
2024-05-09T16:04:20.939Z,39.38
2024-05-09T16:06:50.620Z,39.93
2024-05-09T16:09:22.717Z,39.89
2024-05-09T16:11:51.902Z,40.42
2024-05-09T16:14:22.426Z,39.68
2024-05-09T16:16:53.450Z,40.22
2024-05-09T16:19:24.936Z,40.85
2024-05-09T16:21:53.092Z,40.98
2024-05-09T16:24:24.252Z,40.40
2024-05-09T16:26:52.719Z,39.29
2024-05-09T16:29:23.471Z,39.70
2024-05-09T16:31:53.610Z,39.61
2024-05-09T16:34:24.780Z,40.10
2024-05-09T16:36:52.716Z,41.03
2024-05-09T16:39:23.966Z,41.39
2024-05-09T16:41:55.285Z,40.59
2024-05-09T16:44:26.916Z,40.60
2024-05-09T16:47:00.559Z,40.10
2024-05-09T16:49:28.269Z,40.05
2024-05-09T16:51:59.410Z,40.73
2024-05-09T16:54:27.343Z,41.44
2024-05-09T16:56:58.867Z,40.33
2024-05-09T16:59:27.398Z,40.43
2024-05-09T17:02:01.216Z,40.29
2024-05-09T17:04:29.023Z,41.91
2024-05-09T17:06:59.899Z,41.84
2024-05-09T17:09:28.353Z,42.17
2024-05-09T17:11:59.338Z,42.57
2024-05-09T17:14:30.434Z,43.44
2024-05-09T17:17:04.584Z,44.33
2024-05-09T17:19:38.730Z,45.18
2024-05-09T17:22:06.986Z,45.63
2024-05-09T17:24:38.166Z,45.21
2024-05-09T17:27:09.385Z,45.75
2024-05-09T17:29:41.109Z,46.66
2024-05-09T17:32:13.562Z,47.15
2024-05-09T17:34:46.361Z,46.55
2024-05-09T17:37:14.699Z,47.70
2024-05-09T17:39:45.972Z,48.24
2024-05-09T17:42:15.074Z,48.46
2024-05-09T17:44:45.793Z,49.13
2024-05-09T17:47:16.346Z,49.98
2024-05-09T17:49:47.171Z,50.73
2024-05-09T17:52:14.827Z,51.18
2024-05-09T17:54:45.692Z,51.20
2024-05-09T17:57:15.870Z,51.70
2024-05-09T17:59:47.120Z,52.22
2024-05-09T18:02:17.472Z,52.90
2024-05-09T18:04:49.156Z,53.27
2024-05-09T18:07:18.857Z,53.41
2024-05-09T18:09:50.143Z,53.36
2024-05-09T18:12:18.750Z,54.19
2024-05-09T18:14:51.019Z,55.24
2024-05-09T18:17:25.272Z,55.99
2024-05-09T18:19:56.818Z,56.97
2024-05-09T18:22:25.342Z,57.18
2024-05-09T18:24:57.360Z,57.31
2024-05-09T18:27:25.977Z,58.79
2024-05-09T18:29:56.957Z,58.34
2024-05-09T18:32:29.065Z,59.06
2024-05-09T18:34:59.944Z,59.84
2024-05-09T18:37:28.432Z,59.91
2024-05-09T18:40:00.703Z,59.88
2024-05-09T18:42:29.048Z,60.90
2024-05-09T18:45:01.445Z,60.92
2024-05-09T18:47:33.244Z,62.08
2024-05-09T18:50:03.831Z,62.30
2024-05-09T18:52:34.617Z,62.81
2024-05-09T18:55:06.541Z,62.59
2024-05-09T18:57:34.974Z,61.43
2024-05-09T19:00:08.711Z,61.73
2024-05-09T19:02:42.923Z,61.72
2024-05-09T19:05:14.998Z,62.64
2024-05-09T19:07:44.727Z,62.57
2024-05-09T19:10:22.497Z,62.69
2024-05-09T19:12:54.106Z,63.41
2024-05-09T19:15:25.887Z,64.21
2024-05-09T19:17:57.767Z,64.32
2024-05-09T19:20:33.792Z,64.88
2024-05-09T19:23:03.404Z,65.00
2024-05-09T19:25:34.714Z,65.09
2024-05-09T19:28:04.168Z,65.07
2024-05-09T19:30:40.270Z,64.88
2024-05-09T19:33:13.992Z,65.06
2024-05-09T19:35:46.726Z,65.60
2024-05-09T19:38:17.355Z,65.82
2024-05-09T19:40:49.439Z,66.82
2024-05-09T19:43:17.888Z,66.94
2024-05-09T19:45:49.282Z,67.42
2024-05-09T19:48:21.942Z,67.66
2024-05-09T19:50:53.918Z,68.01
2024-05-09T19:53:21.744Z,68.24
2024-05-09T19:55:53.763Z,68.39
2024-05-09T19:58:21.944Z,68.78
2024-05-09T20:00:53.946Z,69.15
2024-05-09T20:03:25.136Z,69.34
2024-05-09T20:05:56.140Z,69.71
2024-05-09T20:08:24.366Z,69.80
2024-05-09T20:10:55.129Z,70.10
2024-05-09T20:13:23.517Z,70.73
2024-05-09T20:15:54.510Z,71.02
2024-05-09T20:18:26.446Z,70.67
2024-05-09T20:21:01.801Z,70.42
2024-05-09T20:23:30.451Z,70.76
2024-05-09T20:26:02.038Z,71.17
2024-05-09T20:28:30.394Z,71.07
2024-05-09T20:31:01.994Z,71.17
2024-05-09T20:33:33.126Z,71.28
2024-05-09T20:36:03.450Z,71.62
2024-05-09T20:38:31.873Z,72.36
2024-05-09T20:41:04.230Z,73.43
2024-05-09T20:43:32.463Z,75.84
2024-05-09T20:46:04.112Z,78.05
2024-05-09T20:48:35.110Z,78.63
2024-05-09T20:51:06.862Z,78.96
2024-05-09T20:53:34.978Z,79.17
2024-05-09T20:56:05.470Z,78.59
2024-05-09T20:58:34.326Z,78.17
2024-05-09T21:01:05.016Z,78.64
2024-05-09T21:03:38.695Z,78.61
2024-05-09T21:06:10.671Z,78.07
2024-05-09T21:08:38.383Z,79.12
2024-05-09T21:11:10.035Z,78.52
2024-05-09T21:13:38.059Z,78.92
2024-05-09T21:16:11.551Z,76.80
2024-05-09T21:18:42.728Z,75.90
2024-05-09T21:21:14.343Z,76.30
2024-05-09T21:23:41.837Z,77.01
2024-05-09T21:26:13.687Z,78.01
2024-05-09T21:28:43.137Z,80.20
2024-05-09T21:31:14.237Z,79.17
2024-05-09T21:33:45.324Z,78.18
2024-05-09T21:36:16.116Z,77.86
2024-05-09T21:38:44.069Z,77.84
2024-05-09T21:41:14.491Z,78.48
2024-05-09T21:43:42.707Z,78.79
2024-05-09T21:46:13.839Z,78.99
2024-05-09T21:48:42.038Z,77.85
2024-05-09T21:51:18.937Z,77.55
2024-05-09T21:53:46.979Z,78.03
2024-05-09T21:56:17.375Z,78.73
2024-05-09T21:58:45.559Z,79.91
2024-05-09T22:01:17.026Z,79.40
2024-05-09T22:03:45.784Z,79.52
2024-05-09T22:06:19.174Z,80.38
2024-05-09T22:08:47.541Z,80.42
2024-05-09T22:11:18.739Z,80.66
2024-05-09T22:13:46.833Z,80.76
2024-05-09T22:16:17.153Z,81.22
2024-05-09T22:18:46.781Z,80.91
2024-05-09T22:21:20.647Z,82.22
2024-05-09T22:23:48.395Z,83.12
2024-05-09T22:26:19.363Z,83.79
2024-05-09T22:28:48.254Z,83.39
2024-05-09T22:31:18.898Z,83.23
2024-05-09T22:33:47.966Z,84.87
2024-05-09T22:36:23.409Z,84.84
2024-05-09T22:38:52.132Z,84.97
2024-05-09T22:41:22.660Z,84.84
2024-05-09T22:43:51.282Z,86.19
2024-05-09T22:46:22.142Z,86.32
2024-05-09T22:48:52.086Z,87.40
2024-05-09T22:51:27.477Z,87.56
2024-05-09T22:53:56.144Z,87.50
2024-05-09T22:56:29.403Z,88.42
2024-05-09T22:58:57.725Z,87.76
2024-05-09T23:01:28.746Z,87.95
2024-05-09T23:03:58.784Z,88.25
2024-05-09T23:06:35.183Z,88.92
2024-05-09T23:09:03.641Z,88.51
2024-05-09T23:11:35.015Z,88.27
2024-05-09T23:14:04.059Z,87.78
2024-05-09T23:16:34.968Z,89.51
2024-05-09T23:19:03.051Z,89.16
2024-05-09T23:21:41.456Z,89.94
2024-05-09T23:24:09.150Z,89.84
2024-05-09T23:26:40.094Z,90.46
2024-05-09T23:29:07.611Z,91.11
2024-05-09T23:31:38.544Z,91.58
2024-05-09T23:34:06.149Z,92.12
2024-05-09T23:36:39.051Z,92.10
2024-05-09T23:39:08.146Z,91.77
2024-05-09T23:41:39.470Z,90.07
2024-05-09T23:44:07.831Z,88.55
2024-05-09T23:46:39.088Z,87.94
2024-05-09T23:49:07.504Z,87.90
2024-05-09T23:51:42.264Z,87.93
2024-05-09T23:54:11.368Z,87.16
2024-05-09T23:56:41.717Z,87.42
2024-05-09T23:59:11.676Z,86.02
